Time;durP1;ratioP1;P1;durP2;ratioP2;P2;SDS_P1;SDS_P2;PMS_P1;PMS_P2;Temp;Humidity;BMP_temperature;BMP_pressure;BME280_temperature;BME280_humidity;BME280_pressure;Samples;Min_cycle;Max_cycle;Signal;HPM_P1;HPM_P2
2024/02/07 00:01:38;;;;;;;6.75;2.60;;;7.40;93.50;;;;;;5011706;28;20037;-81
2024/02/07 00:04:03;;;;;;;9.93;3.63;;;7.40;93.20;;;;;;5010651;28;20022;-80
2024/02/07 00:06:30;;;;;;;5.43;3.00;;;7.40;93.10;;;;;;5009651;28;20034;-81
2024/02/07 00:08:56;;;;;;;5.32;3.08;;;7.40;92.80;;;;;;5092885;27;20061;-80
2024/02/07 00:11:21;;;;;;;5.35;3.13;;;7.40;92.20;;;;;;5011291;28;20060;-83
2024/02/07 00:13:47;;;;;;;6.30;2.95;;;7.40;92.00;;;;;;4998007;28;20018;-79
2024/02/07 00:16:13;;;;;;;7.20;2.97;;;7.50;92.80;;;;;;5070896;28;20029;-82
2024/02/07 00:18:40;;;;;;;5.93;3.20;;;7.50;92.90;;;;;;5089161;28;20030;-79
2024/02/07 00:21:05;;;;;;;3.63;2.40;;;7.40;93.40;;;;;;4991885;28;20033;-80
2024/02/07 00:23:31;;;;;;;6.00;2.38;;;7.40;93.20;;;;;;5078928;28;20390;-80
2024/02/07 00:25:57;;;;;;;4.82;2.95;;;7.40;93.60;;;;;;5077972;28;20026;-80
2024/02/07 00:28:23;;;;;;;4.78;2.40;;;7.50;93.60;;;;;;5010686;28;20029;-83
2024/02/07 00:30:49;;;;;;;4.22;3.05;;;7.50;92.90;;;;;;5009935;28;20470;-80
2024/02/07 00:33:15;;;;;;;3.45;2.38;;;7.50;92.10;;;;;;5047890;28;20044;-80
2024/02/07 00:35:40;;;;;;;6.18;2.92;;;7.60;91.50;;;;;;4996358;28;20050;-80
2024/02/07 00:38:06;;;;;;;5.95;2.67;;;7.50;92.00;;;;;;5009987;28;20046;-80
2024/02/07 00:40:33;;;;;;;7.15;3.38;;;7.60;91.40;;;;;;5095060;28;20109;-83
2024/02/07 00:42:58;;;;;;;8.07;2.65;;;7.50;91.80;;;;;;5092474;28;20029;-80
2024/02/07 00:45:24;;;;;;;5.90;2.47;;;7.60;91.80;;;;;;5080519;28;20392;-80
2024/02/07 00:47:50;;;;;;;4.65;2.38;;;7.60;92.30;;;;;;5009791;28;20101;-80
2024/02/07 00:50:16;;;;;;;4.88;2.97;;;7.60;90.50;;;;;;5073668;28;20104;-82
2024/02/07 00:52:41;;;;;;;5.68;2.70;;;7.60;90.10;;;;;;5068076;28;20052;-83
2024/02/07 00:55:09;;;;;;;8.13;3.53;;;7.60;90.70;;;;;;5078123;28;20057;-80
2024/02/07 00:57:35;;;;;;;8.05;3.55;;;7.60;90.70;;;;;;5077099;28;20034;-80
2024/02/07 01:00:01;;;;;;;3.42;2.65;;;7.60;90.60;;;;;;5080706;28;20466;-82
2024/02/07 01:02:27;;;;;;;4.70;2.78;;;7.60;90.60;;;;;;5072790;28;20022;-83
2024/02/07 01:04:53;;;;;;;5.85;3.50;;;7.60;90.80;;;;;;5007456;28;20511;-84
2024/02/07 01:07:18;;;;;;;5.55;3.08;;;7.60;90.60;;;;;;5078041;28;20076;-80
2024/02/07 01:09:44;;;;;;;5.78;3.10;;;7.60;91.00;;;;;;5009919;28;20028;-83
2024/02/07 01:12:09;;;;;;;4.80;2.88;;;7.60;90.50;;;;;;5010023;28;20075;-81
2024/02/07 01:14:35;;;;;;;5.03;2.92;;;7.60;90.10;;;;;;5059826;28;20026;-83
2024/02/07 01:17:01;;;;;;;4.40;3.03;;;7.60;90.20;;;;;;5001128;28;20015;-83
2024/02/07 01:19:26;;;;;;;8.40;3.05;;;7.60;90.40;;;;;;5003431;28;20023;-80
2024/02/07 01:21:52;;;;;;;4.68;2.50;;;7.60;89.90;;;;;;5077006;28;20057;-82
2024/02/07 01:24:18;;;;;;;6.10;2.65;;;7.60;90.50;;;;;;5077158;28;20049;-82
2024/02/07 01:26:44;;;;;;;5.00;2.80;;;7.60;90.50;;;;;;5034823;28;20365;-82
2024/02/07 01:29:10;;;;;;;3.10;2.50;;;7.60;90.50;;;;;;5082637;28;20025;-82
2024/02/07 01:31:36;;;;;;;5.07;2.75;;;7.50;91.00;;;;;;5006268;28;20421;-83
2024/02/07 01:34:01;;;;;;;3.38;2.30;;;7.50;90.90;;;;;;5070859;28;20049;-80
2024/02/07 01:36:27;;;;;;;3.67;2.50;;;7.50;90.80;;;;;;5005091;28;20034;-80
2024/02/07 01:38:54;;;;;;;7.50;2.97;;;7.50;91.00;;;;;;5039753;28;20089;-81
2024/02/07 01:41:22;;;;;;;5.57;3.10;;;7.50;91.00;;;;;;5005464;28;20027;-84
2024/02/07 01:43:48;;;;;;;5.38;2.58;;;7.50;91.40;;;;;;5001688;28;20030;-81
2024/02/07 01:46:14;;;;;;;6.22;2.60;;;7.50;91.80;;;;;;5006893;28;20025;-82
2024/02/07 01:48:43;;;;;;;6.95;3.25;;;7.50;92.00;;;;;;5009935;28;20034;-80
2024/02/07 01:51:10;;;;;;;6.25;3.03;;;7.50;92.00;;;;;;5089682;28;20372;-83
2024/02/07 01:53:38;;;;;;;3.38;2.42;;;7.40;92.10;;;;;;5006694;28;20033;-82
2024/02/07 01:56:06;;;;;;;5.00;2.42;;;7.40;91.70;;;;;;5012777;28;20030;-82
2024/02/07 01:58:32;;;;;;;5.72;2.78;;;7.40;92.20;;;;;;5083733;28;20038;-81
2024/02/07 02:00:58;;;;;;;3.67;2.47;;;7.40;92.50;;;;;;5012698;28;20018;-81
2024/02/07 02:03:24;;;;;;;8.13;2.92;;;7.40;92.70;;;;;;5011142;28;20034;-80
2024/02/07 02:05:50;;;;;;;5.93;3.35;;;7.40;92.60;;;;;;5011534;28;20025;-84
2024/02/07 02:08:16;;;;;;;7.22;3.20;;;7.40;92.80;;;;;;5007525;28;20387;-80
2024/02/07 02:10:42;;;;;;;4.93;3.03;;;7.40;93.30;;;;;;5075461;28;20025;-83
2024/02/07 02:13:08;;;;;;;9.57;4.72;;;7.40;93.20;;;;;;5005574;28;20022;-80
2024/02/07 02:15:34;;;;;;;15.45;6.45;;;7.40;93.30;;;;;;5012664;28;20034;-80
2024/02/07 02:18:00;;;;;;;6.30;3.65;;;7.40;93.70;;;;;;5080917;28;20086;-81
2024/02/07 02:20:26;;;;;;;7.40;3.88;;;7.40;93.90;;;;;;5080926;28;20114;-80
2024/02/07 02:23:17;;;;;;;11.00;6.13;;;7.30;94.50;;;;;;5078754;28;20033;-82
2024/02/07 02:26:21;;;;;;;25.00;11.25;;;7.40;93.80;;;;;;5003846;28;20041;-82
2024/02/07 02:28:57;;;;;;;9.48;3.53;;;7.30;94.70;;;;;;5075729;28;20558;-81
2024/02/07 02:31:24;;;;;;;6.95;3.05;;;7.30;94.40;;;;;;5004367;28;20022;-81
2024/02/07 02:33:54;;;;;;;5.20;2.50;;;7.30;94.70;;;;;;5012447;28;20024;-80
2024/02/07 02:36:20;;;;;;;3.78;2.47;;;7.30;94.10;;;;;;5012669;28;20038;-80
2024/02/07 02:38:46;;;;;;;4.32;2.78;;;7.40;93.90;;;;;;5005351;28;20232;-82
2024/02/07 02:41:14;;;;;;;3.83;3.03;;;7.30;94.10;;;;;;5096795;28;20026;-80
2024/02/07 02:43:40;;;;;;;4.57;2.75;;;7.30;94.00;;;;;;4995586;28;20026;-80
2024/02/07 02:46:09;;;;;;;4.35;2.30;;;7.40;93.40;;;;;;5002673;28;20067;-79
2024/02/07 02:48:35;;;;;;;4.60;2.47;;;7.40;93.10;;;;;;5012156;28;20014;-80
2024/02/07 02:51:02;;;;;;;3.10;2.50;;;7.40;93.30;;;;;;5084020;28;20033;-81
2024/02/07 02:53:32;;;;;;;4.28;2.42;;;7.40;93.70;;;;;;5071857;28;20026;-82
2024/02/07 02:56:05;;;;;;;4.68;2.47;;;7.40;93.50;;;;;;5078801;28;20119;-80
2024/02/07 02:58:32;;;;;;;3.80;2.30;;;7.40;93.30;;;;;;5079953;28;20600;-83
2024/02/07 03:00:58;;;;;;;5.10;2.70;;;7.40;93.00;;;;;;5010996;28;20029;-83
2024/02/07 03:03:24;;;;;;;7.93;3.22;;;7.30;93.60;;;;;;5012039;28;20022;-82
2024/02/07 03:05:58;;;;;;;10.10;2.97;;;7.30;93.30;;;;;;5096367;28;20057;-82
2024/02/07 03:08:42;;;;;;;4.55;2.47;;;7.20;93.70;;;;;;5010520;28;20045;-81
2024/02/07 03:11:11;;;;;;;3.40;2.10;;;7.20;93.80;;;;;;5010185;28;20026;-80
2024/02/07 03:13:37;;;;;;;5.53;2.40;;;7.20;94.10;;;;;;5079547;28;20034;-81
2024/02/07 03:16:11;;;;;;;4.97;2.45;;;7.20;93.70;;;;;;5096067;28;20402;-82
2024/02/07 03:18:38;;;;;;;4.88;2.22;;;7.10;94.10;;;;;;5080202;28;20037;-81
2024/02/07 03:21:05;;;;;;;3.10;2.45;;;7.10;94.30;;;;;;5079546;28;20074;-80
2024/02/07 03:23:35;;;;;;;4.35;2.35;;;7.10;94.50;;;;;;5007808;28;20026;-82
2024/02/07 03:26:01;;;;;;;4.15;3.15;;;7.10;94.20;;;;;;5079562;28;20028;-80
2024/02/07 03:28:27;;;;;;;8.05;2.95;;;7.10;94.80;;;;;;5079162;28;20443;-80
2024/02/07 03:30:53;;;;;;;3.95;3.05;;;7.00;95.60;;;;;;4996512;28;20052;-80
2024/02/07 03:33:19;;;;;;;4.25;1.83;;;7.00;95.50;;;;;;5008001;28;20483;-80
2024/02/07 03:35:45;;;;;;;5.43;2.40;;;7.00;96.00;;;;;;5079597;28;20040;-80
2024/02/07 03:38:12;;;;;;;5.53;2.55;;;6.90;96.20;;;;;;5003057;28;20046;-83
2024/02/07 03:40:37;;;;;;;6.10;2.85;;;6.90;96.30;;;;;;5004335;28;20105;-80
2024/02/07 03:43:03;;;;;;;5.15;2.13;;;6.90;96.70;;;;;;5008277;28;20535;-81
2024/02/07 03:45:32;;;;;;;3.95;2.45;;;6.90;97.20;;;;;;5010005;28;20060;-83
2024/02/07 03:47:58;;;;;;;3.78;2.20;;;6.80;97.50;;;;;;5011233;28;20018;-82
2024/02/07 03:50:27;;;;;;;3.78;2.25;;;6.80;97.60;;;;;;5011338;28;20025;-80
2024/02/07 03:52:55;;;;;;;7.80;2.83;;;6.80;98.10;;;;;;4998031;28;20072;-80
2024/02/07 03:55:21;;;;;;;7.03;2.30;;;6.80;98.50;;;;;;5079494;28;20042;-78
2024/02/07 03:57:48;;;;;;;2.97;2.03;;;6.80;98.10;;;;;;5011081;28;20471;-82
2024/02/07 04:00:15;;;;;;;4.50;2.15;;;6.80;98.30;;;;;;5010252;28;20050;-80
2024/02/07 04:02:48;;;;;;;5.10;2.45;;;6.80;98.30;;;;;;5090257;27;20022;-81
2024/02/07 04:05:14;;;;;;;8.80;2.45;;;6.70;98.90;;;;;;5073580;28;20026;-81
2024/02/07 04:07:39;;;;;;;4.97;2.55;;;6.70;98.60;;;;;;5004008;28;20449;-81
2024/02/07 04:10:09;;;;;;;5.63;2.35;;;6.70;98.90;;;;;;5075926;28;20025;-81
2024/02/07 05:15:57;;;;;;;6.43;2.75;;;6.60;99.90;;;;;;5001682;28;20455;-80
2024/02/07 05:18:22;;;;;;;6.18;2.60;;;6.50;99.90;;;;;;4998080;28;20098;-82
2024/02/07 05:20:48;;;;;;;9.60;4.07;;;6.50;99.90;;;;;;5009555;28;20026;-83
2024/02/07 05:23:16;;;;;;;13.38;8.65;;;6.60;99.90;;;;;;5087807;28;20022;-80
2024/02/07 05:25:46;;;;;;;4.32;3.08;;;6.50;99.90;;;;;;5075318;28;20062;-83
2024/02/07 05:28:12;;;;;;;6.65;2.58;;;6.50;99.90;;;;;;5013039;28;20045;-83
2024/02/07 05:30:39;;;;;;;7.72;3.40;;;6.50;99.90;;;;;;5013520;28;20022;-80
2024/02/07 05:33:05;;;;;;;5.05;2.72;;;6.60;99.90;;;;;;5013177;28;20030;-81
2024/02/07 05:35:30;;;;;;;9.45;3.95;;;6.60;99.90;;;;;;5012903;28;20060;-82
2024/02/07 05:37:56;;;;;;;6.13;3.47;;;6.50;99.90;;;;;;5009062;28;20045;-80
2024/02/07 05:40:21;;;;;;;5.20;2.60;;;6.50;99.90;;;;;;5003351;28;20022;-79
2024/02/07 05:42:47;;;;;;;4.90;2.42;;;6.50;99.90;;;;;;5004617;28;20109;-81
2024/02/07 05:45:13;;;;;;;6.97;3.03;;;6.50;99.90;;;;;;5008703;28;20037;-81
2024/02/07 05:47:38;;;;;;;7.82;2.80;;;6.60;99.90;;;;;;5004004;28;20018;-81
2024/02/07 05:50:08;;;;;;;10.65;3.70;;;6.60;99.90;;;;;;5080717;28;20014;-81
2024/02/07 05:52:34;;;;;;;6.80;3.35;;;6.60;99.90;;;;;;5081469;28;20046;-81
2024/02/07 05:55:00;;;;;;;5.70;2.88;;;6.50;99.90;;;;;;5081109;28;20072;-81
2024/02/07 05:57:25;;;;;;;4.40;2.65;;;6.50;99.90;;;;;;5091679;28;20030;-79
2024/02/07 05:59:51;;;;;;;4.28;2.28;;;6.50;99.90;;;;;;5011051;28;20057;-80
2024/02/07 06:02:18;;;;;;;6.47;2.78;;;6.50;99.90;;;;;;5011387;28;20159;-82
2024/02/07 06:04:49;;;;;;;4.47;2.40;;;6.50;99.90;;;;;;5013046;28;20029;-81
2024/02/07 06:07:15;;;;;;;5.82;2.63;;;6.50;99.90;;;;;;4999698;28;20509;-80
2024/02/07 06:09:41;;;;;;;6.53;2.35;;;6.40;99.90;;;;;;5085364;28;20406;-79
2024/02/07 06:12:07;;;;;;;5.57;2.47;;;6.40;99.90;;;;;;5003365;28;20047;-79
2024/02/07 06:14:33;;;;;;;4.25;2.28;;;6.40;99.90;;;;;;5075315;28;20059;-80
2024/02/07 06:16:58;;;;;;;4.65;3.03;;;6.40;99.90;;;;;;5075904;28;20122;-80
2024/02/07 06:19:24;;;;;;;4.80;2.25;;;6.40;99.90;;;;;;5097808;28;20030;-79
2024/02/07 06:21:52;;;;;;;5.05;2.83;;;6.40;99.90;;;;;;5074758;28;20031;-79
2024/02/07 06:24:17;;;;;;;7.05;2.97;;;6.40;99.90;;;;;;5082232;28;20026;-81
2024/02/07 06:26:43;;;;;;;4.75;2.90;;;6.40;99.90;;;;;;5090693;28;20088;-79
2024/02/07 06:29:09;;;;;;;8.77;3.13;;;6.40;99.90;;;;;;5000001;28;20033;-78
2024/02/07 06:31:35;;;;;;;6.07;2.80;;;6.30;99.90;;;;;;5079794;28;20475;-79
2024/02/07 06:34:02;;;;;;;5.68;3.10;;;6.30;99.90;;;;;;5004050;28;20413;-79
2024/02/07 06:36:28;;;;;;;5.30;2.97;;;6.30;99.90;;;;;;5071114;28;20090;-79
2024/02/07 06:38:53;;;;;;;3.78;2.70;;;6.30;99.90;;;;;;5087053;28;20058;-82
2024/02/07 06:41:19;;;;;;;6.22;2.63;;;6.30;99.90;;;;;;5007065;28;20478;-82
2024/02/07 06:43:45;;;;;;;2.90;2.60;;;6.30;99.90;;;;;;5083402;28;20045;-81
2024/02/07 06:46:10;;;;;;;6.20;2.80;;;6.30;99.90;;;;;;5077698;28;20022;-79
2024/02/07 06:48:36;;;;;;;7.32;2.95;;;6.30;99.90;;;;;;5095012;28;20078;-82
2024/02/07 06:51:01;;;;;;;6.20;3.15;;;6.40;99.90;;;;;;5075484;28;20121;-81
2024/02/07 06:53:27;;;;;;;8.45;2.72;;;6.40;99.90;;;;;;5011960;28;20029;-80
2024/02/07 06:55:53;;;;;;;6.53;2.92;;;6.50;99.90;;;;;;5079688;28;20030;-80
2024/02/07 06:58:18;;;;;;;3.92;3.05;;;6.50;99.90;;;;;;5094084;28;20034;-80
2024/02/07 07:00:44;;;;;;;7.05;2.85;;;6.50;99.90;;;;;;5003094;28;20029;-80
2024/02/07 07:03:10;;;;;;;4.65;3.20;;;6.60;99.90;;;;;;5073262;28;20072;-80
2024/02/07 07:05:35;;;;;;;10.20;3.67;;;6.60;99.90;;;;;;4994223;28;20098;-80
2024/02/07 07:08:01;;;;;;;5.03;2.58;;;6.60;99.90;;;;;;4995008;28;20014;-80
2024/02/07 07:10:26;;;;;;;8.80;3.00;;;6.60;99.90;;;;;;5070325;28;20029;-80
2024/02/07 07:12:52;;;;;;;3.80;2.58;;;6.70;99.90;;;;;;4998072;28;20488;-81
2024/02/07 07:15:20;;;;;;;3.65;2.83;;;6.60;99.90;;;;;;5005733;28;20455;-82
2024/02/07 07:17:46;;;;;;;6.35;3.20;;;6.70;99.90;;;;;;5078407;28;20036;-81
2024/02/07 07:20:11;;;;;;;8.43;3.80;;;6.60;99.90;;;;;;5076996;28;20457;-80
2024/02/07 07:22:37;;;;;;;7.10;2.83;;;6.70;99.90;;;;;;5070680;28;20025;-83
2024/02/07 07:25:03;;;;;;;6.78;3.30;;;6.60;99.90;;;;;;5011514;28;20467;-80
2024/02/07 07:27:30;;;;;;;2.92;2.63;;;6.60;99.90;;;;;;5086991;28;20050;-83
2024/02/07 07:29:56;;;;;;;7.65;3.60;;;6.60;99.90;;;;;;5011656;28;20101;-83
2024/02/07 07:32:22;;;;;;;5.53;2.60;;;6.60;99.90;;;;;;5002685;28;20109;-79
2024/02/07 07:34:47;;;;;;;5.63;3.53;;;6.60;99.90;;;;;;5065589;28;20386;-79
2024/02/07 07:37:13;;;;;;;4.65;3.03;;;6.60;99.90;;;;;;5065695;28;20172;-82
2024/02/07 07:39:41;;;;;;;4.68;3.17;;;6.60;99.90;;;;;;5000460;28;20019;-82
2024/02/07 07:42:06;;;;;;;5.03;2.88;;;6.60;99.90;;;;;;4999877;28;20029;-81
2024/02/07 07:44:32;;;;;;;11.85;3.70;;;6.70;99.90;;;;;;5000835;28;20031;-82
2024/02/07 07:46:57;;;;;;;5.63;3.17;;;6.60;99.90;;;;;;5000375;28;20468;-83
2024/02/07 07:49:23;;;;;;;7.35;3.15;;;6.70;99.90;;;;;;5010134;28;20026;-82
2024/02/07 07:51:49;;;;;;;6.30;3.22;;;6.70;99.90;;;;;;5010110;28;20074;-80
2024/02/07 07:54:14;;;;;;;7.75;3.50;;;6.80;99.90;;;;;;5011321;28;20018;-82
2024/02/07 07:56:40;;;;;;;5.53;3.33;;;6.80;99.90;;;;;;4998603;28;20041;-79
2024/02/07 07:59:06;;;;;;;7.40;3.13;;;6.80;99.90;;;;;;5009505;28;20022;-82
2024/02/07 08:01:31;;;;;;;6.63;3.30;;;6.70;99.90;;;;;;5067896;28;20035;-82
2024/02/07 08:03:57;;;;;;;5.22;3.20;;;6.70;99.90;;;;;;5012174;28;20022;-82
2024/02/07 08:06:23;;;;;;;6.50;3.22;;;6.70;99.90;;;;;;5010843;28;20030;-82
2024/02/07 08:08:48;;;;;;;6.20;3.05;;;6.70;99.90;;;;;;5040406;28;20050;-83
2024/02/07 08:11:14;;;;;;;6.05;3.33;;;6.70;99.90;;;;;;5095473;28;20056;-80
2024/02/07 08:13:40;;;;;;;5.63;2.95;;;6.60;99.90;;;;;;5090058;28;20026;-81
2024/02/07 08:16:06;;;;;;;5.88;2.80;;;6.60;99.90;;;;;;5095742;28;20122;-80
2024/02/07 08:18:33;;;;;;;6.53;4.22;;;6.70;99.90;;;;;;5010852;28;20018;-83
2024/02/07 08:20:59;;;;;;;7.13;3.28;;;6.70;99.90;;;;;;5004822;28;20018;-81
2024/02/07 08:23:24;;;;;;;5.90;3.08;;;6.70;99.90;;;;;;5093291;28;20028;-82
2024/02/07 08:25:51;;;;;;;3.97;2.65;;;6.70;99.90;;;;;;5077615;28;20017;-82
2024/02/07 08:28:16;;;;;;;5.20;2.65;;;6.70;99.90;;;;;;5005626;28;20030;-80
2024/02/07 08:30:42;;;;;;;5.07;2.13;;;6.80;99.90;;;;;;5078218;28;20087;-82
2024/02/07 08:33:08;;;;;;;4.63;2.38;;;6.70;99.90;;;;;;5010409;28;20018;-81
2024/02/07 08:35:33;;;;;;;4.90;2.80;;;6.80;99.90;;;;;;5010358;28;20525;-80
2024/02/07 08:37:59;;;;;;;4.38;2.25;;;6.80;99.90;;;;;;5087115;28;20049;-83
2024/02/07 08:40:26;;;;;;;3.22;2.53;;;6.80;99.90;;;;;;5010329;28;20033;-81
2024/02/07 08:42:51;;;;;;;4.25;2.63;;;6.90;99.90;;;;;;5075615;28;20033;-82
2024/02/07 08:45:20;;;;;;;3.78;2.38;;;6.90;99.90;;;;;;5010490;28;20095;-81
2024/02/07 08:47:46;;;;;;;6.85;2.72;;;6.90;99.90;;;;;;5010053;28;20421;-80
2024/02/07 08:50:12;;;;;;;6.70;2.28;;;7.00;99.90;;;;;;5006836;28;20097;-80
2024/02/07 08:52:41;;;;;;;3.40;2.22;;;6.90;99.90;;;;;;5071601;28;20044;-82
2024/02/07 08:55:08;;;;;;;6.78;3.17;;;7.00;99.90;;;;;;5067404;28;20475;-80
2024/02/07 08:57:39;;;;;;;7.35;3.10;;;7.00;99.90;;;;;;5003897;28;20087;-81
2024/02/07 09:00:07;;;;;;;4.15;2.60;;;7.10;99.90;;;;;;4999388;28;20037;-79
2024/02/07 09:02:33;;;;;;;8.15;3.17;;;7.10;99.90;;;;;;5072496;28;20037;-80
2024/02/07 09:05:04;;;;;;;3.88;2.53;;;7.10;99.90;;;;;;5001050;28;20101;-78
2024/02/07 09:07:31;;;;;;;4.97;2.80;;;7.20;99.90;;;;;;5073350;28;20044;-79
2024/02/07 09:09:57;;;;;;;4.38;2.30;;;7.20;99.90;;;;;;5067013;28;20117;-79
2024/02/07 09:12:23;;;;;;;3.65;2.75;;;7.20;99.90;;;;;;5001696;28;20042;-79
2024/02/07 09:14:48;;;;;;;4.05;2.38;;;7.20;99.90;;;;;;5076770;28;20036;-81
2024/02/07 09:17:14;;;;;;;4.15;2.63;;;7.20;99.90;;;;;;4995916;28;20441;-81
2024/02/07 09:19:40;;;;;;;4.25;2.30;;;7.20;99.90;;;;;;5066870;28;20479;-81
2024/02/07 09:22:05;;;;;;;3.53;2.10;;;7.20;99.90;;;;;;5075925;28;20071;-79
2024/02/07 09:24:31;;;;;;;3.75;2.35;;;7.20;99.90;;;;;;5073733;28;20022;-81
2024/02/07 09:26:58;;;;;;;3.53;2.47;;;7.20;99.90;;;;;;5009915;28;20171;-79
2024/02/07 09:29:24;;;;;;;4.93;2.30;;;7.10;99.90;;;;;;5072763;28;20026;-79
2024/02/07 09:31:50;;;;;;;4.07;2.20;;;7.10;99.90;;;;;;5075480;28;20037;-80
2024/02/07 09:34:15;;;;;;;6.13;2.63;;;7.10;99.90;;;;;;5074467;28;20026;-78
2024/02/07 09:36:41;;;;;;;2.90;2.15;;;7.10;99.90;;;;;;5074702;28;20037;-78
2024/02/07 09:39:07;;;;;;;3.30;2.20;;;7.10;99.90;;;;;;5081359;28;20037;-81
2024/02/07 09:41:34;;;;;;;4.88;2.63;;;7.10;99.90;;;;;;5087959;28;20045;-79
2024/02/07 09:44:03;;;;;;;4.22;2.20;;;7.10;99.90;;;;;;5086735;28;20039;-81
2024/02/07 09:46:36;;;;;;;4.60;2.17;;;7.10;99.90;;;;;;5085791;28;20024;-80
2024/02/07 09:49:02;;;;;;;4.72;2.50;;;7.10;99.90;;;;;;5083135;28;20033;-80
2024/02/07 09:51:29;;;;;;;3.67;2.28;;;7.00;99.90;;;;;;5087345;28;20089;-81
2024/02/07 09:53:55;;;;;;;3.28;2.45;;;7.00;99.90;;;;;;5081892;28;20017;-81
2024/02/07 09:56:22;;;;;;;3.97;2.53;;;7.00;99.90;;;;;;5083827;28;20032;-82
2024/02/07 09:58:48;;;;;;;3.38;2.67;;;7.00;99.90;;;;;;5083119;28;20040;-81
2024/02/07 10:01:15;;;;;;;6.72;2.50;;;7.00;99.90;;;;;;5090329;28;20027;-81
2024/02/07 10:03:46;;;;;;;4.55;2.10;;;7.00;99.90;;;;;;5088099;28;20073;-82
2024/02/07 10:06:13;;;;;;;4.75;2.15;;;7.00;99.90;;;;;;5070860;28;20111;-82
2024/02/07 10:08:39;;;;;;;2.42;2.00;;;7.00;99.90;;;;;;5088237;28;20016;-83
2024/02/07 10:11:07;;;;;;;5.32;2.30;;;7.00;99.90;;;;;;5089928;28;20019;-81
2024/02/07 10:13:33;;;;;;;3.97;1.75;;;7.00;99.90;;;;;;5086434;28;20016;-82
2024/02/07 10:16:00;;;;;;;3.67;1.88;;;6.80;99.90;;;;;;5089958;28;20492;-82
2024/02/07 10:18:26;;;;;;;2.78;2.53;;;6.80;99.90;;;;;;5088851;28;20431;-82
2024/02/07 10:20:53;;;;;;;4.30;2.60;;;6.80;99.90;;;;;;5090456;28;20111;-83
2024/02/07 10:23:19;;;;;;;3.97;2.10;;;6.70;99.90;;;;;;5087912;28;20587;-82
2024/02/07 10:25:54;;;;;;;3.65;2.25;;;6.70;99.90;;;;;;5092428;28;20020;-79
2024/02/07 10:28:21;;;;;;;4.55;2.88;;;6.60;99.90;;;;;;5089302;28;20040;-79
2024/02/07 10:31:03;;;;;;;4.95;3.03;;;6.70;99.90;;;;;;5091974;28;20107;-83
2024/02/07 10:33:44;;;;;;;3.70;2.93;;;6.70;99.90;;;;;;5100792;28;20029;-83
2024/02/07 10:36:10;;;;;;;4.57;2.45;;;6.70;99.90;;;;;;5090336;28;20339;-82
2024/02/07 10:38:36;;;;;;;5.03;2.90;;;6.70;99.90;;;;;;5029295;28;20101;-79
2024/02/07 10:41:02;;;;;;;6.22;3.08;;;6.70;99.90;;;;;;5004696;28;20026;-80
2024/02/07 10:43:30;;;;;;;6.15;3.70;;;6.80;99.90;;;;;;5071756;28;20033;-80
2024/02/07 10:45:59;;;;;;;3.75;2.78;;;6.80;99.90;;;;;;5074102;28;20466;-79
2024/02/07 10:48:24;;;;;;;3.65;2.70;;;6.90;99.90;;;;;;5000232;28;20026;-80
2024/02/07 10:50:50;;;;;;;7.65;4.50;;;6.90;99.90;;;;;;5005605;28;20022;-80
2024/02/07 10:53:17;;;;;;;8.18;3.00;;;7.00;99.90;;;;;;5000238;28;20045;-81
2024/02/07 10:55:43;;;;;;;6.85;3.47;;;7.00;99.90;;;;;;5078184;28;20037;-80
2024/02/07 10:58:15;;;;;;;4.90;3.40;;;7.00;99.90;;;;;;5094920;28;20042;-80
2024/02/07 11:00:42;;;;;;;6.90;3.55;;;7.00;99.90;;;;;;4997685;28;20022;-80
2024/02/07 11:03:09;;;;;;;5.78;3.38;;;7.10;99.90;;;;;;5062528;28;20030;-81
2024/02/07 11:05:35;;;;;;;5.22;3.00;;;7.20;99.90;;;;;;5078396;28;20030;-80
2024/02/07 11:08:01;;;;;;;5.43;3.00;;;7.20;99.90;;;;;;5004282;28;20034;-84
2024/02/07 11:10:28;;;;;;;6.32;3.67;;;7.40;99.90;;;;;;5004765;28;20032;-80
2024/02/07 11:12:55;;;;;;;10.07;3.90;;;7.40;99.90;;;;;;5005326;28;20040;-82
2024/02/07 11:15:21;;;;;;;9.55;3.78;;;7.50;99.90;;;;;;4998009;28;20483;-80
2024/02/07 11:17:49;;;;;;;4.60;3.42;;;7.50;99.90;;;;;;5007603;28;20038;-80
2024/02/07 11:20:16;;;;;;;6.15;3.72;;;7.60;99.90;;;;;;5004340;28;20027;-80
2024/02/07 11:22:44;;;;;;;6.13;3.75;;;7.60;99.90;;;;;;5002251;28;20042;-81
2024/02/07 11:25:15;;;;;;;4.18;3.53;;;7.60;99.90;;;;;;5067614;28;20022;-80
2024/02/07 11:27:41;;;;;;;6.63;2.95;;;7.60;99.90;;;;;;5074803;28;20141;-80
2024/02/07 11:30:11;;;;;;;5.55;3.22;;;7.60;99.90;;;;;;5003014;28;20098;-82
2024/02/07 11:32:38;;;;;;;8.38;3.58;;;7.60;99.90;;;;;;5077049;28;20068;-80
2024/02/07 11:35:07;;;;;;;6.60;3.83;;;7.60;99.90;;;;;;5010498;28;20016;-80
2024/02/07 11:37:36;;;;;;;5.68;3.60;;;7.50;99.90;;;;;;5006592;28;20061;-80
2024/02/07 11:40:06;;;;;;;9.13;3.97;;;7.60;99.90;;;;;;5077570;28;20359;-83
2024/02/07 11:42:37;;;;;;;6.28;3.65;;;7.60;99.90;;;;;;5067388;28;20118;-84
2024/02/07 11:45:04;;;;;;;6.85;4.15;;;7.60;99.90;;;;;;5078053;28;20026;-83
2024/02/07 11:47:33;;;;;;;47.78;17.17;;;7.60;99.90;;;;;;5068733;28;20080;-83
2024/02/07 11:50:04;;;;;;;25.27;9.68;;;7.60;99.90;;;;;;4993254;28;20498;-81
2024/02/07 11:52:32;;;;;;;54.17;22.25;;;7.60;99.90;;;;;;5007336;28;21347;-82
2024/02/07 11:55:07;;;;;;;27.00;12.82;;;7.60;99.90;;;;;;5007313;28;20045;-83
2024/02/07 11:57:34;;;;;;;8.18;4.72;;;7.70;99.90;;;;;;5076274;28;20045;-82
2024/02/07 12:00:01;;;;;;;34.78;14.35;;;7.70;99.90;;;;;;5069872;28;20060;-83
2024/02/07 12:02:27;;;;;;;10.30;5.88;;;7.70;99.90;;;;;;5001362;28;20123;-83
2024/02/07 12:04:52;;;;;;;9.95;5.32;;;7.70;99.90;;;;;;5070262;28;20029;-83
2024/02/07 12:07:19;;;;;;;8.32;4.07;;;7.70;99.90;;;;;;5004821;28;20046;-83
2024/02/07 12:09:45;;;;;;;28.30;13.13;;;7.80;99.90;;;;;;5010043;28;20042;-83
2024/02/07 12:12:15;;;;;;;11.68;6.63;;;7.80;99.90;;;;;;5009825;28;20022;-81
2024/02/07 12:14:41;;;;;;;8.80;5.15;;;7.80;99.90;;;;;;5064352;28;20497;-84
2024/02/07 12:17:08;;;;;;;9.93;5.05;;;7.80;99.90;;;;;;4997266;28;20042;-81
2024/02/07 12:19:35;;;;;;;11.70;6.82;;;7.80;99.90;;;;;;5073714;28;20487;-80
2024/02/07 12:22:02;;;;;;;8.27;4.55;;;7.80;99.90;;;;;;5009503;28;20022;-80
2024/02/07 12:24:32;;;;;;;10.00;5.40;;;7.80;99.90;;;;;;5001513;28;20026;-80
2024/02/07 12:27:14;;;;;;;8.38;3.40;;;7.80;99.90;;;;;;5008518;28;20071;-81
2024/02/07 12:29:47;;;;;;;10.70;5.50;;;7.90;99.90;;;;;;5068054;28;20472;-80
2024/02/07 12:32:13;;;;;;;7.03;3.63;;;7.80;99.90;;;;;;5003811;28;20079;-80
2024/02/07 12:34:40;;;;;;;6.47;3.55;;;7.80;99.90;;;;;;5059407;28;20038;-80
2024/02/07 12:37:06;;;;;;;4.68;3.17;;;7.90;99.90;;;;;;5074967;28;20449;-84
2024/02/07 12:39:32;;;;;;;6.32;2.97;;;7.90;99.90;;;;;;5006974;28;20038;-83
2024/02/07 12:42:03;;;;;;;3.88;3.40;;;7.90;99.90;;;;;;5086949;28;20457;-83
2024/02/07 12:44:31;;;;;;;5.45;2.63;;;7.90;99.90;;;;;;5073438;28;20121;-83
2024/02/07 12:46:57;;;;;;;7.43;4.13;;;7.90;99.90;;;;;;5001481;28;20376;-84
2024/02/07 12:49:24;;;;;;;4.28;2.95;;;7.90;99.90;;;;;;4999170;28;20053;-83
2024/02/07 12:51:50;;;;;;;5.47;3.17;;;7.90;99.90;;;;;;4999974;28;20030;-84
2024/02/07 12:54:16;;;;;;;7.95;4.45;;;7.90;99.90;;;;;;5004023;28;20412;-83
2024/02/07 12:56:41;;;;;;;10.93;5.63;;;7.90;99.90;;;;;;5002392;28;20041;-82
2024/02/07 12:59:08;;;;;;;7.20;4.10;;;7.90;99.90;;;;;;5071157;28;20109;-83
2024/02/07 13:01:34;;;;;;;7.93;4.13;;;7.80;99.90;;;;;;5063937;28;20034;-83
2024/02/07 13:04:00;;;;;;;7.57;4.85;;;7.80;99.90;;;;;;5008375;28;20395;-83
2024/02/07 13:06:26;;;;;;;6.68;4.15;;;7.80;99.90;;;;;;5065083;28;20037;-83
2024/02/07 13:08:51;;;;;;;8.55;4.85;;;7.70;99.90;;;;;;4996974;28;20536;-84
2024/02/07 13:11:18;;;;;;;14.57;10.95;;;7.70;99.90;;;;;;5076152;28;20113;-83
2024/02/07 13:13:43;;;;;;;7.35;4.63;;;7.70;99.90;;;;;;5062210;28;20115;-82
2024/02/07 13:16:09;;;;;;;8.25;5.55;;;7.60;99.90;;;;;;5063833;28;20034;-83
2024/02/07 13:18:36;;;;;;;5.95;3.78;;;7.50;99.90;;;;;;5076448;28;20586;-80
2024/02/07 13:21:05;;;;;;;6.50;3.83;;;7.10;99.90;;;;;;4994249;28;20463;-80
2024/02/07 13:23:33;;;;;;;3.92;2.70;;;6.50;99.90;;;;;;5001730;28;20039;-80
2024/02/07 13:26:00;;;;;;;3.03;2.20;;;6.10;99.90;;;;;;5072507;28;20037;-82
2024/02/07 13:28:26;;;;;;;2.15;1.95;;;5.60;99.90;;;;;;4990134;28;20126;-82
2024/02/07 13:30:52;;;;;;;4.22;1.95;;;5.30;99.90;;;;;;5000436;28;20022;-82
2024/02/07 13:33:18;;;;;;;1.80;1.70;;;5.00;99.90;;;;;;5007290;28;20105;-82
2024/02/07 13:35:43;;;;;;;2.08;1.88;;;4.70;99.90;;;;;;5069036;28;20054;-82
2024/02/07 13:38:09;;;;;;;1.92;1.83;;;4.50;99.90;;;;;;5073459;28;20048;-82
2024/02/07 13:40:37;;;;;;;3.33;2.20;;;4.40;99.90;;;;;;5075826;28;20552;-80
2024/02/07 13:43:03;;;;;;;3.15;2.63;;;4.40;99.90;;;;;;5079219;28;20019;-79
2024/02/07 13:45:28;;;;;;;2.67;2.05;;;4.30;99.90;;;;;;4998537;28;20038;-79
2024/02/07 13:47:54;;;;;;;2.28;1.92;;;4.20;99.90;;;;;;5078883;28;20121;-79
2024/02/07 13:50:20;;;;;;;4.72;2.03;;;4.00;99.90;;;;;;5008334;28;20042;-82
2024/02/07 13:52:45;;;;;;;5.03;2.67;;;4.00;99.90;;;;;;5092856;28;20026;-82
2024/02/07 13:55:11;;;;;;;2.25;2.05;;;3.90;99.90;;;;;;5070216;28;20034;-79
2024/02/07 13:57:38;;;;;;;6.75;3.67;;;3.90;99.90;;;;;;5003025;28;20534;-81